Aeroporto :
LOGIN :

Iscrizione | Disclaimer

   EN    FR    IT 

 










Sommario :    VFR   VFR Marginale   IFR   IFR Intensivo   IFR Molto Intensivo
Visibilità : 
Base nubi : 
>= 8 km
>= 3000ft
5 / 8 km
1000 / 3000 ft
1500m / 5 km
500 / 1000 ft
800 / 1500m
200 / 500 ft
< 800m
< 200 ft
Simboli :   Temporali  Nebbia  Neve Forte  Precipitazioni Forti  Vento > 20 kt
SIGMETs :   Varie  Temporali  Ghiacco  Turbolenza  Onda orograficha  Ceneri Vulcaniche






- Altitudine del aeroporto : 36 ft
- Codice IATA : GJL


DAAV - Jijel Ferhat Abbas

ULTIMO METAR :
  • 191600Z 18009KT 9999 FEW020 SCT033 BKN090 12/06 Q1013

METARs OBSOLETI :
  • 191500Z 16010KT 8000 -RA FEW020 SCT033 BKN090 12/06 Q1014
  • 191400Z 14005KT 7000 -RA FEW020 SCT033 BKN090 12/07 Q1014

TAF TAF DAAV
Valido dal 19 a 12 ore il 20 a 12 ore UTC


191100Z 1912/2012 17015KT 9999 FEW023 BKN030
TEMPO 1912/1924 FEW023TCU
PROB40
TEMPO 1913/1920 16015G25KT 5000 -TSRA FEW026CB



MetMap, La meteo Aeronautica in un colpo d'occhio ! - Copyright ORBIFLY Dicembre 2007 - Disclaimer

ORBIFLY MET'MAP TEAM :

Programmazione e sviluppo : Alexandra Zaïnal
Concezione : Baudouin d'Aumeries
Aiuto per la programmazione : Marc-Olivier Méhu
Supporto tecnico e logistico : Manuel Goepfert
Aiuto per la traduzione : Arnaldo La Scala

Contatto : metmap@orbifly.com




FONTI E CREDITI :

   NOAA